sensor_id;sensor_type;location;lat;lon;timestamp;temperature;humidity
14893;DHT22;7538;53.626;9.906;2023-07-31T00:01:22;16.10;99.90
14893;DHT22;7538;53.626;9.906;2023-07-31T00:03:49;16.00;99.90
14893;DHT22;7538;53.626;9.906;2023-07-31T00:06:16;16.10;99.90
14893;DHT22;7538;53.626;9.906;2023-07-31T00:08:43;16.10;99.90
14893;DHT22;7538;53.626;9.906;2023-07-31T00:11:09;16.10;99.90
14893;DHT22;7538;53.626;9.906;2023-07-31T00:13:36;16.10;99.90
14893;DHT22;7538;53.626;9.906;2023-07-31T00:16:03;16.10;99.90
14893;DHT22;7538;53.626;9.906;2023-07-31T00:18:31;16.20;99.90
14893;DHT22;7538;53.626;9.906;2023-07-31T00:20:58;16.20;99.90
14893;DHT22;7538;53.626;9.906;2023-07-31T00:23:25;16.20;99.90
14893;DHT22;7538;53.626;9.906;2023-07-31T00:25:51;16.20;99.90
14893;DHT22;7538;53.626;9.906;2023-07-31T00:28:22;16.20;99.90
14893;DHT22;7538;53.626;9.906;2023-07-31T00:30:49;16.50;99.90
14893;DHT22;7538;53.626;9.906;2023-07-31T00:33:16;16.20;99.90
14893;DHT22;7538;53.626;9.906;2023-07-31T00:35:44;16.20;99.90
14893;DHT22;7538;53.626;9.906;2023-07-31T00:38:15;16.20;99.90
14893;DHT22;7538;53.626;9.906;2023-07-31T00:40:44;15.80;99.90
14893;DHT22;7538;53.626;9.906;2023-07-31T00:43:11;16.20;99.90
14893;DHT22;7538;53.626;9.906;2023-07-31T00:45:38;16.20;99.90
14893;DHT22;7538;53.626;9.906;2023-07-31T00:48:05;16.30;99.90
14893;DHT22;7538;53.626;9.906;2023-07-31T00:50:33;16.20;99.90
14893;DHT22;7538;53.626;9.906;2023-07-31T00:53:09;14.80;99.90
14893;DHT22;7538;53.626;9.906;2023-07-31T00:55:36;16.10;99.90
14893;DHT22;7538;53.626;9.906;2023-07-31T00:58:02;16.10;99.90
14893;DHT22;7538;53.626;9.906;2023-07-31T01:00:29;16.10;99.90
14893;DHT22;7538;53.626;9.906;2023-07-31T01:02:56;16.10;99.90
14893;DHT22;7538;53.626;9.906;2023-07-31T01:05:29;15.90;99.90
14893;DHT22;7538;53.626;9.906;2023-07-31T01:08:05;16.00;99.90
14893;DHT22;7538;53.626;9.906;2023-07-31T01:10:44;15.90;99.90
14893;DHT22;7538;53.626;9.906;2023-07-31T01:13:13;15.90;99.90
14893;DHT22;7538;53.626;9.906;2023-07-31T01:15:40;15.80;99.90
14893;DHT22;7538;53.626;9.906;2023-07-31T01:18:07;15.80;99.90
14893;DHT22;7538;53.626;9.906;2023-07-31T01:20:35;15.80;99.90
14893;DHT22;7538;53.626;9.906;2023-07-31T01:23:27;15.90;99.90
14893;DHT22;7538;53.626;9.906;2023-07-31T01:26:04;15.90;99.90
14893;DHT22;7538;53.626;9.906;2023-07-31T01:28:40;15.90;99.90
14893;DHT22;7538;53.626;9.906;2023-07-31T01:31:08;15.90;99.90
14893;DHT22;7538;53.626;9.906;2023-07-31T01:33:36;15.80;99.90
14893;DHT22;7538;53.626;9.906;2023-07-31T01:36:04;15.80;99.90
14893;DHT22;7538;53.626;9.906;2023-07-31T01:38:31;15.80;99.90
14893;DHT22;7538;53.626;9.906;2023-07-31T01:43:27;15.70;99.90
14893;DHT22;7538;53.626;9.906;2023-07-31T01:45:54;15.70;99.90
14893;DHT22;7538;53.626;9.906;2023-07-31T01:50:47;15.70;99.90
14893;DHT22;7538;53.626;9.906;2023-07-31T01:53:14;15.70;99.90
14893;DHT22;7538;53.626;9.906;2023-07-31T01:55:41;15.70;99.90
14893;DHT22;7538;53.626;9.906;2023-07-31T01:58:09;15.70;99.90
14893;DHT22;7538;53.626;9.906;2023-07-31T02:00:37;15.70;99.90
14893;DHT22;7538;53.626;9.906;2023-07-31T02:03:04;15.70;99.90
14893;DHT22;7538;53.626;9.906;2023-07-31T02:05:31;15.70;99.90
14893;DHT22;7538;53.626;9.906;2023-07-31T02:07:57;15.70;99.90
14893;DHT22;7538;53.626;9.906;2023-07-31T02:10:24;15.70;99.90
14893;DHT22;7538;53.626;9.906;2023-07-31T02:12:51;15.70;99.90
14893;DHT22;7538;53.626;9.906;2023-07-31T02:15:18;15.70;99.90
14893;DHT22;7538;53.626;9.906;2023-07-31T02:17:46;15.70;99.90
14893;DHT22;7538;53.626;9.906;2023-07-31T02:20:13;15.80;99.90
14893;DHT22;7538;53.626;9.906;2023-07-31T02:22:40;15.80;99.90
14893;DHT22;7538;53.626;9.906;2023-07-31T02:25:07;15.90;99.90
14893;DHT22;7538;53.626;9.906;2023-07-31T02:30:01;15.90;99.90
14893;DHT22;7538;53.626;9.906;2023-07-31T02:34:57;16.00;99.90
14893;DHT22;7538;53.626;9.906;2023-07-31T02:37:24;16.10;99.90
14893;DHT22;7538;53.626;9.906;2023-07-31T02:39:51;16.00;99.90
14893;DHT22;7538;53.626;9.906;2023-07-31T02:42:18;16.00;99.90
14893;DHT22;7538;53.626;9.906;2023-07-31T02:49:39;16.00;99.90
14893;DHT22;7538;53.626;9.906;2023-07-31T02:52:07;16.00;99.90
14893;DHT22;7538;53.626;9.906;2023-07-31T02:54:34;16.00;99.90
14893;DHT22;7538;53.626;9.906;2023-07-31T02:57:01;16.00;99.90
14893;DHT22;7538;53.626;9.906;2023-07-31T02:59:28;15.90;99.90
14893;DHT22;7538;53.626;9.906;2023-07-31T03:01:55;16.00;99.90
14893;DHT22;7538;53.626;9.906;2023-07-31T03:04:22;16.00;99.90
14893;DHT22;7538;53.626;9.906;2023-07-31T03:06:48;16.00;99.90
14893;DHT22;7538;53.626;9.906;2023-07-31T03:09:16;16.00;99.90
14893;DHT22;7538;53.626;9.906;2023-07-31T03:11:43;16.00;99.90
14893;DHT22;7538;53.626;9.906;2023-07-31T03:14:10;16.00;99.90
14893;DHT22;7538;53.626;9.906;2023-07-31T03:16:37;16.00;99.90
14893;DHT22;7538;53.626;9.906;2023-07-31T03:19:04;16.10;99.90
14893;DHT22;7538;53.626;9.906;2023-07-31T03:21:30;16.10;99.90
14893;DHT22;7538;53.626;9.906;2023-07-31T03:23:57;16.10;99.90
14893;DHT22;7538;53.626;9.906;2023-07-31T03:26:25;16.10;99.90
14893;DHT22;7538;53.626;9.906;2023-07-31T03:28:52;16.10;99.90
14893;DHT22;7538;53.626;9.906;2023-07-31T03:31:19;16.20;99.90
14893;DHT22;7538;53.626;9.906;2023-07-31T03:33:45;16.20;99.90
14893;DHT22;7538;53.626;9.906;2023-07-31T03:36:12;16.20;99.90
14893;DHT22;7538;53.626;9.906;2023-07-31T03:38:39;16.20;99.90
14893;DHT22;7538;53.626;9.906;2023-07-31T03:41:06;16.20;99.90
14893;DHT22;7538;53.626;9.906;2023-07-31T03:43:34;16.20;99.90
14893;DHT22;7538;53.626;9.906;2023-07-31T03:46:04;16.20;99.90
14893;DHT22;7538;53.626;9.906;2023-07-31T03:51:27;16.20;99.90
14893;DHT22;7538;53.626;9.906;2023-07-31T03:53:54;16.30;99.90
14893;DHT22;7538;53.626;9.906;2023-07-31T03:56:20;16.30;99.90
14893;DHT22;7538;53.626;9.906;2023-07-31T03:58:49;16.40;99.90
14893;DHT22;7538;53.626;9.906;2023-07-31T04:01:16;16.30;99.90
14893;DHT22;7538;53.626;9.906;2023-07-31T04:03:43;16.40;99.90
14893;DHT22;7538;53.626;9.906;2023-07-31T04:06:10;16.40;99.90
14893;DHT22;7538;53.626;9.906;2023-07-31T04:08:36;16.40;99.90
14893;DHT22;7538;53.626;9.906;2023-07-31T04:11:03;16.40;99.90
14893;DHT22;7538;53.626;9.906;2023-07-31T04:13:30;16.40;99.90
14893;DHT22;7538;53.626;9.906;2023-07-31T04:15:58;16.50;99.90
14893;DHT22;7538;53.626;9.906;2023-07-31T04:18:25;16.50;99.90
14893;DHT22;7538;53.626;9.906;2023-07-31T04:20:52;16.50;99.90
14893;DHT22;7538;53.626;9.906;2023-07-31T04:23:19;16.50;99.90
14893;DHT22;7538;53.626;9.906;2023-07-31T04:25:45;16.50;99.90
14893;DHT22;7538;53.626;9.906;2023-07-31T04:28:12;16.60;99.90
14893;DHT22;7538;53.626;9.906;2023-07-31T04:30:39;16.60;99.90
14893;DHT22;7538;53.626;9.906;2023-07-31T04:33:08;16.60;99.90
14893;DHT22;7538;53.626;9.906;2023-07-31T04:35:35;16.70;99.90
14893;DHT22;7538;53.626;9.906;2023-07-31T04:38:01;16.60;99.90
14893;DHT22;7538;53.626;9.906;2023-07-31T04:40:28;16.70;99.90
14893;DHT22;7538;53.626;9.906;2023-07-31T04:42:55;16.70;99.90
14893;DHT22;7538;53.626;9.906;2023-07-31T04:45:22;16.70;99.90
14893;DHT22;7538;53.626;9.906;2023-07-31T04:47:48;16.70;99.90
14893;DHT22;7538;53.626;9.906;2023-07-31T04:50:16;12.50;99.90
14893;DHT22;7538;53.626;9.906;2023-07-31T04:52:43;16.70;99.90
14893;DHT22;7538;53.626;9.906;2023-07-31T04:55:10;16.70;99.90
14893;DHT22;7538;53.626;9.906;2023-07-31T04:57:37;16.60;99.90
14893;DHT22;7538;53.626;9.906;2023-07-31T05:00:04;16.70;99.90
14893;DHT22;7538;53.626;9.906;2023-07-31T05:02:31;16.70;99.90
14893;DHT22;7538;53.626;9.906;2023-07-31T05:04:59;16.70;99.90
14893;DHT22;7538;53.626;9.906;2023-07-31T05:07:28;16.80;99.90
14893;DHT22;7538;53.626;9.906;2023-07-31T05:09:54;16.90;99.90
14893;DHT22;7538;53.626;9.906;2023-07-31T05:12:21;16.80;99.90
14893;DHT22;7538;53.626;9.906;2023-07-31T05:14:48;16.80;99.90
14893;DHT22;7538;53.626;9.906;2023-07-31T05:17:15;16.80;99.90
14893;DHT22;7538;53.626;9.906;2023-07-31T05:19:42;16.80;99.90
14893;DHT22;7538;53.626;9.906;2023-07-31T05:22:08;16.80;99.90
14893;DHT22;7538;53.626;9.906;2023-07-31T05:24:37;16.90;99.90
14893;DHT22;7538;53.626;9.906;2023-07-31T05:27:04;16.90;99.90
14893;DHT22;7538;53.626;9.906;2023-07-31T05:29:31;16.90;99.90
14893;DHT22;7538;53.626;9.906;2023-07-31T05:31:58;16.90;99.90
14893;DHT22;7538;53.626;9.906;2023-07-31T05:34:24;16.90;99.90
14893;DHT22;7538;53.626;9.906;2023-07-31T05:36:51;16.80;99.90
14893;DHT22;7538;53.626;9.906;2023-07-31T05:39:18;16.80;99.90
14893;DHT22;7538;53.626;9.906;2023-07-31T05:41:46;16.80;99.90
14893;DHT22;7538;53.626;9.906;2023-07-31T05:44:13;16.80;99.90
14893;DHT22;7538;53.626;9.906;2023-07-31T05:46:40;16.90;99.90
14893;DHT22;7538;53.626;9.906;2023-07-31T05:49:07;16.90;99.90
14893;DHT22;7538;53.626;9.906;2023-07-31T05:51:34;17.00;99.90
14893;DHT22;7538;53.626;9.906;2023-07-31T05:54:00;16.90;99.90
14893;DHT22;7538;53.626;9.906;2023-07-31T05:56:27;16.80;99.90
14893;DHT22;7538;53.626;9.906;2023-07-31T05:58:55;16.80;99.90
14893;DHT22;7538;53.626;9.906;2023-07-31T06:01:22;16.90;99.90
14893;DHT22;7538;53.626;9.906;2023-07-31T06:03:49;16.90;99.90
14893;DHT22;7538;53.626;9.906;2023-07-31T06:06:16;16.90;99.90
14893;DHT22;7538;53.626;9.906;2023-07-31T06:08:43;17.00;99.90
14893;DHT22;7538;53.626;9.906;2023-07-31T06:11:10;17.00;99.90
14893;DHT22;7538;53.626;9.906;2023-07-31T06:13:36;16.90;99.90
14893;DHT22;7538;53.626;9.906;2023-07-31T06:16:05;16.90;99.90
14893;DHT22;7538;53.626;9.906;2023-07-31T06:18:32;17.00;99.90
14893;DHT22;7538;53.626;9.906;2023-07-31T06:20:58;17.10;99.90
14893;DHT22;7538;53.626;9.906;2023-07-31T06:23:25;17.00;99.90
14893;DHT22;7538;53.626;9.906;2023-07-31T06:25:52;17.10;99.90
14893;DHT22;7538;53.626;9.906;2023-07-31T06:28:19;17.10;99.90
14893;DHT22;7538;53.626;9.906;2023-07-31T06:30:45;17.00;99.90
14893;DHT22;7538;53.626;9.906;2023-07-31T06:33:14;17.10;99.90
14893;DHT22;7538;53.626;9.906;2023-07-31T06:35:40;17.00;99.90
14893;DHT22;7538;53.626;9.906;2023-07-31T06:38:07;16.90;99.90
14893;DHT22;7538;53.626;9.906;2023-07-31T06:40:34;16.90;99.90
14893;DHT22;7538;53.626;9.906;2023-07-31T06:43:01;16.80;99.90
14893;DHT22;7538;53.626;9.906;2023-07-31T06:45:33;16.90;99.90
14893;DHT22;7538;53.626;9.906;2023-07-31T06:48:00;16.90;99.90
14893;DHT22;7538;53.626;9.906;2023-07-31T06:50:28;17.00;99.90
14893;DHT22;7538;53.626;9.906;2023-07-31T06:52:55;17.00;99.90
14893;DHT22;7538;53.626;9.906;2023-07-31T06:55:23;16.90;99.90
14893;DHT22;7538;53.626;9.906;2023-07-31T06:57:51;16.90;99.90
14893;DHT22;7538;53.626;9.906;2023-07-31T07:00:20;17.00;99.90
14893;DHT22;7538;53.626;9.906;2023-07-31T07:02:49;16.90;99.90
14893;DHT22;7538;53.626;9.906;2023-07-31T07:05:16;16.90;99.90
14893;DHT22;7538;53.626;9.906;2023-07-31T07:07:45;16.90;99.90
14893;DHT22;7538;53.626;9.906;2023-07-31T07:10:12;16.90;99.90
14893;DHT22;7538;53.626;9.906;2023-07-31T07:12:39;16.90;99.90
14893;DHT22;7538;53.626;9.906;2023-07-31T07:15:06;17.00;99.90
14893;DHT22;7538;53.626;9.906;2023-07-31T07:17:33;17.10;99.90
14893;DHT22;7538;53.626;9.906;2023-07-31T07:20:00;17.20;99.90
14893;DHT22;7538;53.626;9.906;2023-07-31T07:22:28;17.30;99.90
14893;DHT22;7538;53.626;9.906;2023-07-31T07:24:57;17.30;99.90
14893;DHT22;7538;53.626;9.906;2023-07-31T07:27:23;17.20;99.90
14893;DHT22;7538;53.626;9.906;2023-07-31T07:29:51;17.20;99.90
14893;DHT22;7538;53.626;9.906;2023-07-31T07:32:19;17.20;99.90
14893;DHT22;7538;53.626;9.906;2023-07-31T07:34:46;17.30;99.90
14893;DHT22;7538;53.626;9.906;2023-07-31T07:37:13;17.30;99.90
14893;DHT22;7538;53.626;9.906;2023-07-31T07:39:41;17.40;99.90
14893;DHT22;7538;53.626;9.906;2023-07-31T07:42:13;17.30;99.90
14893;DHT22;7538;53.626;9.906;2023-07-31T07:44:40;17.40;99.90
14893;DHT22;7538;53.626;9.906;2023-07-31T07:47:06;17.30;99.90
14893;DHT22;7538;53.626;9.906;2023-07-31T07:49:33;17.30;99.90
14893;DHT22;7538;53.626;9.906;2023-07-31T07:52:01;17.30;99.90
14893;DHT22;7538;53.626;9.906;2023-07-31T07:54:28;17.40;99.90
14893;DHT22;7538;53.626;9.906;2023-07-31T07:56:54;17.50;99.90
14893;DHT22;7538;53.626;9.906;2023-07-31T07:59:22;17.50;99.90
14893;DHT22;7538;53.626;9.906;2023-07-31T08:01:49;17.60;99.90
14893;DHT22;7538;53.626;9.906;2023-07-31T08:04:16;17.80;99.90
14893;DHT22;7538;53.626;9.906;2023-07-31T08:06:43;17.90;99.90
14893;DHT22;7538;53.626;9.906;2023-07-31T08:09:10;18.10;99.90
14893;DHT22;7538;53.626;9.906;2023-07-31T08:11:36;18.10;99.90
14893;DHT22;7538;53.626;9.906;2023-07-31T08:14:03;18.10;99.90
14893;DHT22;7538;53.626;9.906;2023-07-31T08:16:31;18.20;99.90
14893;DHT22;7538;53.626;9.906;2023-07-31T08:18:58;18.30;99.90
14893;DHT22;7538;53.626;9.906;2023-07-31T08:21:25;18.30;99.90
14893;DHT22;7538;53.626;9.906;2023-07-31T08:23:52;18.50;99.90
14893;DHT22;7538;53.626;9.906;2023-07-31T08:26:19;18.60;99.90
14893;DHT22;7538;53.626;9.906;2023-07-31T08:28:46;18.80;99.90
14893;DHT22;7538;53.626;9.906;2023-07-31T08:31:13;18.90;99.90
14893;DHT22;7538;53.626;9.906;2023-07-31T08:33:41;19.00;99.90
14893;DHT22;7538;53.626;9.906;2023-07-31T08:36:08;19.20;99.90
14893;DHT22;7538;53.626;9.906;2023-07-31T08:38:34;19.30;99.90
14893;DHT22;7538;53.626;9.906;2023-07-31T08:41:03;19.30;99.90
14893;DHT22;7538;53.626;9.906;2023-07-31T08:43:30;19.70;99.90
14893;DHT22;7538;53.626;9.906;2023-07-31T08:45:57;19.40;99.90
14893;DHT22;7538;53.626;9.906;2023-07-31T08:48:24;19.40;99.90
14893;DHT22;7538;53.626;9.906;2023-07-31T08:50:53;19.50;99.90
14893;DHT22;7538;53.626;9.906;2023-07-31T08:53:20;19.60;99.90
14893;DHT22;7538;53.626;9.906;2023-07-31T08:55:49;19.60;99.90
14893;DHT22;7538;53.626;9.906;2023-07-31T08:58:17;19.60;99.90
14893;DHT22;7538;53.626;9.906;2023-07-31T09:00:46;19.60;99.90
14893;DHT22;7538;53.626;9.906;2023-07-31T09:03:14;19.60;99.90
14893;DHT22;7538;53.626;9.906;2023-07-31T09:05:43;19.40;99.90
14893;DHT22;7538;53.626;9.906;2023-07-31T09:08:12;19.30;99.90
14893;DHT22;7538;53.626;9.906;2023-07-31T09:10:43;19.20;99.90
14893;DHT22;7538;53.626;9.906;2023-07-31T09:13:11;19.00;99.90
14893;DHT22;7538;53.626;9.906;2023-07-31T09:15:39;18.70;99.90
14893;DHT22;7538;53.626;9.906;2023-07-31T09:18:07;18.80;99.90
14893;DHT22;7538;53.626;9.906;2023-07-31T09:20:35;18.90;99.90
14893;DHT22;7538;53.626;9.906;2023-07-31T09:23:08;18.70;99.90
14893;DHT22;7538;53.626;9.906;2023-07-31T09:25:37;18.70;99.90
14893;DHT22;7538;53.626;9.906;2023-07-31T09:28:05;18.80;99.90
14893;DHT22;7538;53.626;9.906;2023-07-31T09:30:44;18.80;99.90
14893;DHT22;7538;53.626;9.906;2023-07-31T09:33:11;18.90;99.90
14893;DHT22;7538;53.626;9.906;2023-07-31T09:35:39;19.10;99.90
14893;DHT22;7538;53.626;9.906;2023-07-31T09:38:08;19.20;99.90
14893;DHT22;7538;53.626;9.906;2023-07-31T09:40:38;19.20;99.90
14893;DHT22;7538;53.626;9.906;2023-07-31T09:43:06;19.40;99.90
14893;DHT22;7538;53.626;9.906;2023-07-31T09:45:35;19.40;99.90
14893;DHT22;7538;53.626;9.906;2023-07-31T09:48:03;19.50;99.90
14893;DHT22;7538;53.626;9.906;2023-07-31T09:50:36;19.50;99.90
14893;DHT22;7538;53.626;9.906;2023-07-31T09:53:03;19.50;99.90
14893;DHT22;7538;53.626;9.906;2023-07-31T09:55:31;19.50;99.90
14893;DHT22;7538;53.626;9.906;2023-07-31T09:58:00;19.50;99.90
14893;DHT22;7538;53.626;9.906;2023-07-31T10:00:30;19.60;99.90
14893;DHT22;7538;53.626;9.906;2023-07-31T10:02:59;19.60;99.90
14893;DHT22;7538;53.626;9.906;2023-07-31T10:05:31;19.50;99.90
14893;DHT22;7538;53.626;9.906;2023-07-31T10:07:58;19.50;99.90
14893;DHT22;7538;53.626;9.906;2023-07-31T10:10:26;19.40;99.90
14893;DHT22;7538;53.626;9.906;2023-07-31T10:12:56;19.40;99.90
14893;DHT22;7538;53.626;9.906;2023-07-31T10:15:30;19.50;99.90
14893;DHT22;7538;53.626;9.906;2023-07-31T10:17:58;19.90;99.90
14893;DHT22;7538;53.626;9.906;2023-07-31T10:20:26;19.50;99.90
14893;DHT22;7538;53.626;9.906;2023-07-31T10:22:54;19.50;99.90
14893;DHT22;7538;53.626;9.906;2023-07-31T10:25:22;19.50;99.90
14893;DHT22;7538;53.626;9.906;2023-07-31T10:31:09;19.70;99.90
14893;DHT22;7538;53.626;9.906;2023-07-31T10:33:36;19.60;99.90
14893;DHT22;7538;53.626;9.906;2023-07-31T10:36:13;19.60;99.90
14893;DHT22;7538;53.626;9.906;2023-07-31T10:38:42;16.90;99.90
14893;DHT22;7538;53.626;9.906;2023-07-31T10:41:09;19.70;99.90
14893;DHT22;7538;53.626;9.906;2023-07-31T10:43:37;19.60;99.90
14893;DHT22;7538;53.626;9.906;2023-07-31T10:46:07;19.60;99.90
14893;DHT22;7538;53.626;9.906;2023-07-31T10:48:36;19.60;99.90
14893;DHT22;7538;53.626;9.906;2023-07-31T10:51:07;19.60;99.90
14893;DHT22;7538;53.626;9.906;2023-07-31T10:53:36;19.60;99.90
14893;DHT22;7538;53.626;9.906;2023-07-31T10:56:06;19.50;99.90
14893;DHT22;7538;53.626;9.906;2023-07-31T10:58:34;19.40;99.90
14893;DHT22;7538;53.626;9.906;2023-07-31T11:01:02;19.30;99.90
14893;DHT22;7538;53.626;9.906;2023-07-31T11:03:43;19.30;99.90
14893;DHT22;7538;53.626;9.906;2023-07-31T11:06:10;19.30;99.90
14893;DHT22;7538;53.626;9.906;2023-07-31T11:08:42;19.20;99.90
14893;DHT22;7538;53.626;9.906;2023-07-31T11:11:11;19.20;99.90
14893;DHT22;7538;53.626;9.906;2023-07-31T11:13:42;19.10;99.90
14893;DHT22;7538;53.626;9.906;2023-07-31T11:16:10;19.10;99.90
14893;DHT22;7538;53.626;9.906;2023-07-31T11:18:44;19.10;99.90
14893;DHT22;7538;53.626;9.906;2023-07-31T11:21:12;19.10;99.90
14893;DHT22;7538;53.626;9.906;2023-07-31T11:23:40;19.00;99.90
14893;DHT22;7538;53.626;9.906;2023-07-31T11:26:07;19.00;99.90
14893;DHT22;7538;53.626;9.906;2023-07-31T11:28:38;18.90;99.90
14893;DHT22;7538;53.626;9.906;2023-07-31T11:31:10;18.90;99.90
14893;DHT22;7538;53.626;9.906;2023-07-31T11:33:38;21.90;99.90
14893;DHT22;7538;53.626;9.906;2023-07-31T11:36:06;18.70;99.90
14893;DHT22;7538;53.626;9.906;2023-07-31T11:38:34;18.60;99.90
14893;DHT22;7538;53.626;9.906;2023-07-31T11:41:03;18.50;99.90
14893;DHT22;7538;53.626;9.906;2023-07-31T11:43:31;18.50;99.90
14893;DHT22;7538;53.626;9.906;2023-07-31T11:45:59;18.20;99.90
14893;DHT22;7538;53.626;9.906;2023-07-31T11:48:29;22.30;99.90
14893;DHT22;7538;53.626;9.906;2023-07-31T11:51:00;18.50;99.90
14893;DHT22;7538;53.626;9.906;2023-07-31T11:53:31;18.70;99.90
14893;DHT22;7538;53.626;9.906;2023-07-31T11:56:00;18.70;99.90
14893;DHT22;7538;53.626;9.906;2023-07-31T11:58:29;18.80;99.90
14893;DHT22;7538;53.626;9.906;2023-07-31T12:00:56;18.70;99.90
14893;DHT22;7538;53.626;9.906;2023-07-31T12:03:24;18.70;99.90
14893;DHT22;7538;53.626;9.906;2023-07-31T12:05:52;18.70;99.90
14893;DHT22;7538;53.626;9.906;2023-07-31T12:08:24;18.70;99.90
14893;DHT22;7538;53.626;9.906;2023-07-31T12:11:02;18.80;99.90
14893;DHT22;7538;53.626;9.906;2023-07-31T12:13:31;18.90;99.90
14893;DHT22;7538;53.626;9.906;2023-07-31T12:15:59;19.00;99.90
14893;DHT22;7538;53.626;9.906;2023-07-31T12:18:36;19.10;99.90
14893;DHT22;7538;53.626;9.906;2023-07-31T12:21:05;19.20;99.90
14893;DHT22;7538;53.626;9.906;2023-07-31T12:23:34;20.00;99.90
14893;DHT22;7538;53.626;9.906;2023-07-31T12:26:04;19.30;99.90
14893;DHT22;7538;53.626;9.906;2023-07-31T12:28:35;17.10;99.90
14893;DHT22;7538;53.626;9.906;2023-07-31T12:31:04;19.20;99.90
14893;DHT22;7538;53.626;9.906;2023-07-31T12:33:32;19.30;99.90
14893;DHT22;7538;53.626;9.906;2023-07-31T12:36:01;19.30;99.90
14893;DHT22;7538;53.626;9.906;2023-07-31T12:38:28;19.30;99.90
14893;DHT22;7538;53.626;9.906;2023-07-31T12:40:55;19.30;99.90
14893;DHT22;7538;53.626;9.906;2023-07-31T12:43:23;19.20;99.90
14893;DHT22;7538;53.626;9.906;2023-07-31T12:45:50;19.20;99.90
14893;DHT22;7538;53.626;9.906;2023-07-31T12:48:16;19.10;99.90
14893;DHT22;7538;53.626;9.906;2023-07-31T12:50:43;19.10;99.90
14893;DHT22;7538;53.626;9.906;2023-07-31T12:53:10;19.10;99.90
14893;DHT22;7538;53.626;9.906;2023-07-31T12:55:39;18.80;99.90
14893;DHT22;7538;53.626;9.906;2023-07-31T12:58:06;19.00;99.90
14893;DHT22;7538;53.626;9.906;2023-07-31T13:00:34;18.70;99.90
14893;DHT22;7538;53.626;9.906;2023-07-31T13:03:11;18.90;99.90
14893;DHT22;7538;53.626;9.906;2023-07-31T13:05:42;18.00;99.90
14893;DHT22;7538;53.626;9.906;2023-07-31T13:08:09;18.00;99.90
14893;DHT22;7538;53.626;9.906;2023-07-31T13:10:37;17.80;99.90
14893;DHT22;7538;53.626;9.906;2023-07-31T13:13:07;17.70;99.90
14893;DHT22;7538;53.626;9.906;2023-07-31T13:15:39;17.90;99.90
14893;DHT22;7538;53.626;9.906;2023-07-31T13:18:10;17.90;99.90
14893;DHT22;7538;53.626;9.906;2023-07-31T13:20:38;18.10;99.90
14893;DHT22;7538;53.626;9.906;2023-07-31T13:23:05;18.50;99.90
14893;DHT22;7538;53.626;9.906;2023-07-31T13:25:47;17.80;99.90
14893;DHT22;7538;53.626;9.906;2023-07-31T13:28:14;17.80;99.90
14893;DHT22;7538;53.626;9.906;2023-07-31T13:30:42;17.80;99.90
14893;DHT22;7538;53.626;9.906;2023-07-31T13:33:09;17.90;99.90
14893;DHT22;7538;53.626;9.906;2023-07-31T13:35:36;17.80;99.90
14893;DHT22;7538;53.626;9.906;2023-07-31T13:38:03;17.80;99.90
14893;DHT22;7538;53.626;9.906;2023-07-31T13:40:31;17.80;99.90
14893;DHT22;7538;53.626;9.906;2023-07-31T13:43:01;19.60;99.90
14893;DHT22;7538;53.626;9.906;2023-07-31T13:45:28;17.60;99.90
14893;DHT22;7538;53.626;9.906;2023-07-31T13:53:46;17.50;99.90
14893;DHT22;7538;53.626;9.906;2023-07-31T13:56:13;17.60;99.90
14893;DHT22;7538;53.626;9.906;2023-07-31T13:58:40;17.60;99.90
14893;DHT22;7538;53.626;9.906;2023-07-31T14:01:07;17.70;99.90
14893;DHT22;7538;53.626;9.906;2023-07-31T14:13:33;17.90;99.90
14893;DHT22;7538;53.626;9.906;2023-07-31T14:16:00;17.90;99.90
14893;DHT22;7538;53.626;9.906;2023-07-31T14:24:16;17.90;99.90
14893;DHT22;7538;53.626;9.906;2023-07-31T14:26:43;17.90;99.90
14893;DHT22;7538;53.626;9.906;2023-07-31T14:29:11;17.90;99.90
14893;DHT22;7538;53.626;9.906;2023-07-31T14:31:38;17.80;99.90
14893;DHT22;7538;53.626;9.906;2023-07-31T14:43:18;17.80;99.90
14893;DHT22;7538;53.626;9.906;2023-07-31T14:45:46;17.90;99.90
14893;DHT22;7538;53.626;9.906;2023-07-31T14:48:13;18.00;99.90
14893;DHT22;7538;53.626;9.906;2023-07-31T14:50:40;18.00;99.90
14893;DHT22;7538;53.626;9.906;2023-07-31T14:53:06;18.00;99.90
14893;DHT22;7538;53.626;9.906;2023-07-31T14:55:33;18.00;99.90
14893;DHT22;7538;53.626;9.906;2023-07-31T14:58:00;18.10;99.90
14893;DHT22;7538;53.626;9.906;2023-07-31T15:00:27;18.10;99.90
14893;DHT22;7538;53.626;9.906;2023-07-31T15:06:05;18.40;99.90
14893;DHT22;7538;53.626;9.906;2023-07-31T15:23:25;18.20;99.90
14893;DHT22;7538;53.626;9.906;2023-07-31T15:25:52;18.20;99.90
14893;DHT22;7538;53.626;9.906;2023-07-31T15:28:19;18.10;99.90
14893;DHT22;7538;53.626;9.906;2023-07-31T15:30:46;18.10;99.90
14893;DHT22;7538;53.626;9.906;2023-07-31T15:33:13;18.10;99.90
14893;DHT22;7538;53.626;9.906;2023-07-31T15:35:39;18.10;99.90
14893;DHT22;7538;53.626;9.906;2023-07-31T15:38:07;18.20;99.90
14893;DHT22;7538;53.626;9.906;2023-07-31T15:40:35;18.20;99.90
14893;DHT22;7538;53.626;9.906;2023-07-31T15:49:46;15.90;99.90
14893;DHT22;7538;53.626;9.906;2023-07-31T15:52:13;18.60;99.90
14893;DHT22;7538;53.626;9.906;2023-07-31T15:58:04;18.80;99.90
14893;DHT22;7538;53.626;9.906;2023-07-31T16:03:06;18.70;99.90
14893;DHT22;7538;53.626;9.906;2023-07-31T16:05:32;18.70;99.90
14893;DHT22;7538;53.626;9.906;2023-07-31T16:13:58;18.80;99.90
14893;DHT22;7538;53.626;9.906;2023-07-31T16:16:27;19.00;99.90
14893;DHT22;7538;53.626;9.906;2023-07-31T16:18:54;18.90;99.90
14893;DHT22;7538;53.626;9.906;2023-07-31T16:21:21;18.90;99.90
14893;DHT22;7538;53.626;9.906;2023-07-31T16:32:22;19.10;99.90
14893;DHT22;7538;53.626;9.906;2023-07-31T16:34:48;19.00;99.90
14893;DHT22;7538;53.626;9.906;2023-07-31T16:37:15;14.80;99.90
14893;DHT22;7538;53.626;9.906;2023-07-31T16:39:42;18.90;99.90
14893;DHT22;7538;53.626;9.906;2023-07-31T16:42:12;18.90;99.90
14893;DHT22;7538;53.626;9.906;2023-07-31T16:53:39;18.60;99.90
14893;DHT22;7538;53.626;9.906;2023-07-31T16:56:06;18.60;99.90
14893;DHT22;7538;53.626;9.906;2023-07-31T16:58:33;18.60;99.90
14893;DHT22;7538;53.626;9.906;2023-07-31T17:01:00;18.60;99.90
14893;DHT22;7538;53.626;9.906;2023-07-31T17:03:26;18.70;99.90
14893;DHT22;7538;53.626;9.906;2023-07-31T17:09:17;19.00;99.90
14893;DHT22;7538;53.626;9.906;2023-07-31T17:12:03;18.80;99.90
14893;DHT22;7538;53.626;9.906;2023-07-31T17:22:58;18.90;99.90
14893;DHT22;7538;53.626;9.906;2023-07-31T17:25:26;18.90;99.90
14893;DHT22;7538;53.626;9.906;2023-07-31T17:27:53;18.90;99.90
14893;DHT22;7538;53.626;9.906;2023-07-31T17:30:19;18.90;99.90
14893;DHT22;7538;53.626;9.906;2023-07-31T17:32:46;18.90;99.90
14893;DHT22;7538;53.626;9.906;2023-07-31T17:35:13;19.00;99.90
14893;DHT22;7538;53.626;9.906;2023-07-31T17:37:40;19.00;99.90
14893;DHT22;7538;53.626;9.906;2023-07-31T17:40:08;23.00;99.90
14893;DHT22;7538;53.626;9.906;2023-07-31T17:52:11;19.00;99.90
14893;DHT22;7538;53.626;9.906;2023-07-31T17:54:38;19.00;99.90
14893;DHT22;7538;53.626;9.906;2023-07-31T17:57:06;18.90;99.90